createdAt,value
2019-01-14T00:00:31.972Z,74.31
2019-01-14T00:03:09.929Z,74.34
2019-01-14T00:05:47.110Z,74.46
2019-01-14T00:08:22.441Z,75.35
2019-01-14T00:10:52.579Z,75.99
2019-01-14T00:13:22.372Z,75.43
2019-01-14T00:15:52.111Z,76.50
2019-01-14T00:18:21.913Z,76.94
2019-01-14T00:20:51.741Z,77.27
2019-01-14T00:23:21.511Z,77.95
2019-01-14T00:25:51.229Z,78.37
2019-01-14T00:28:21.013Z,78.48
2019-01-14T00:30:50.708Z,79.66
2019-01-14T00:33:20.460Z,79.86
2019-01-14T00:35:50.264Z,79.86
2019-01-14T00:38:20.051Z,80.88
2019-01-14T00:40:49.806Z,81.07
2019-01-14T00:43:19.603Z,81.49
2019-01-14T00:45:49.294Z,82.64
2019-01-14T00:48:19.038Z,82.81
2019-01-14T00:50:48.883Z,82.81
2019-01-14T00:53:18.650Z,82.41
2019-01-14T00:55:48.345Z,81.68
2019-01-14T00:58:17.965Z,81.34
2019-01-14T01:00:47.738Z,80.75
2019-01-14T01:03:17.547Z,80.26
2019-01-14T01:05:47.347Z,79.98
2019-01-14T01:08:17.168Z,79.73
2019-01-14T01:10:47.067Z,80.04
2019-01-14T01:13:16.761Z,80.33
2019-01-14T01:15:46.589Z,80.66
2019-01-14T01:18:16.328Z,80.86
2019-01-14T01:20:46.548Z,81.05
2019-01-14T01:23:16.228Z,81.71
2019-01-14T01:25:45.987Z,81.44
2019-01-14T01:28:15.707Z,81.78
2019-01-14T01:30:45.500Z,82.01
2019-01-14T01:33:15.164Z,82.03
2019-01-14T01:35:44.881Z,82.18
2019-01-14T01:38:14.568Z,81.76
2019-01-14T01:40:44.252Z,82.11
2019-01-14T01:43:14.058Z,82.12
2019-01-14T01:45:43.868Z,82.02
2019-01-14T01:48:13.659Z,82.32
2019-01-14T01:50:43.509Z,82.73
2019-01-14T01:53:13.288Z,82.62
2019-01-14T01:55:42.968Z,83.62
2019-01-14T01:58:12.890Z,84.69
2019-01-14T02:00:42.568Z,85.46
2019-01-14T02:03:12.365Z,86.09
2019-01-14T02:05:42.131Z,86.39
2019-01-14T02:08:11.879Z,85.26
2019-01-14T02:10:41.586Z,84.98
2019-01-14T02:13:11.337Z,85.14
2019-01-14T02:15:41.100Z,85.49
2019-01-14T02:18:10.813Z,85.00
2019-01-14T02:20:40.852Z,84.69
2019-01-14T02:23:10.650Z,83.59
2019-01-14T02:25:40.325Z,83.35
2019-01-14T02:28:10.043Z,83.14
2019-01-14T02:30:39.737Z,83.44
2019-01-14T02:33:09.401Z,84.11
2019-01-14T02:35:39.232Z,85.55
2019-01-14T02:38:08.991Z,86.78
2019-01-14T02:40:38.756Z,86.18
2019-01-14T02:43:08.557Z,86.12
2019-01-14T02:45:38.238Z,85.15
2019-01-14T02:48:08.036Z,85.00
2019-01-14T02:50:37.855Z,85.27
2019-01-14T02:53:07.665Z,85.03
2019-01-14T02:55:37.238Z,84.47
2019-01-14T02:58:07.048Z,84.48
2019-01-14T03:00:36.727Z,86.03
2019-01-14T03:03:06.506Z,86.03
2019-01-14T03:05:36.313Z,86.83
2019-01-14T03:08:06.151Z,87.13
2019-01-14T03:10:36.251Z,87.51
2019-01-14T03:13:06.071Z,87.59
2019-01-14T03:15:35.834Z,87.16
2019-01-14T03:18:05.680Z,86.99
2019-01-14T03:20:35.457Z,87.12
2019-01-14T03:23:05.195Z,87.44
2019-01-14T03:25:35.016Z,87.68
2019-01-14T03:28:04.849Z,87.80
2019-01-14T03:30:34.997Z,87.85
2019-01-14T03:33:04.782Z,88.49
2019-01-14T03:35:34.535Z,88.64
2019-01-14T03:38:04.307Z,89.27
2019-01-14T03:40:34.088Z,89.59
2019-01-14T03:43:03.840Z,89.60
2019-01-14T03:45:33.643Z,89.46
2019-01-14T03:48:03.326Z,89.34
2019-01-14T03:50:33.032Z,89.26
2019-01-14T03:53:02.704Z,89.05
2019-01-14T03:55:32.402Z,89.10
2019-01-14T03:58:02.256Z,89.30
2019-01-14T04:00:32.085Z,89.87
2019-01-14T04:03:01.845Z,90.65
2019-01-14T04:05:31.603Z,90.68
2019-01-14T04:08:01.305Z,91.26
2019-01-14T04:10:31.173Z,91.09
2019-01-14T04:13:01.001Z,91.41
2019-01-14T04:15:30.739Z,91.13
2019-01-14T04:18:00.437Z,91.30
2019-01-14T04:20:30.214Z,91.70
2019-01-14T04:23:01.352Z,91.80
2019-01-14T04:25:31.324Z,91.47
2019-01-14T04:28:01.124Z,91.32
2019-01-14T04:30:30.901Z,91.22
2019-01-14T04:33:00.693Z,91.26
2019-01-14T04:35:30.333Z,91.23
2019-01-14T04:38:00.108Z,91.50
2019-01-14T04:40:29.890Z,91.50
2019-01-14T04:42:59.689Z,91.78
2019-01-14T04:45:29.469Z,91.65
2019-01-14T04:47:59.190Z,91.61
2019-01-14T04:50:28.983Z,91.47
2019-01-14T04:52:58.751Z,91.26
2019-01-14T04:55:28.511Z,90.97
2019-01-14T04:57:58.286Z,90.49
2019-01-14T05:00:27.965Z,89.94
2019-01-14T05:02:57.540Z,89.34
2019-01-14T05:05:27.226Z,88.92
2019-01-14T05:07:57.032Z,88.34
2019-01-14T05:10:26.866Z,87.91
2019-01-14T05:12:56.549Z,87.55
2019-01-14T05:15:26.334Z,87.21
2019-01-14T05:17:56.100Z,86.77
2019-01-14T05:20:26.811Z,86.15
2019-01-14T05:22:56.513Z,85.78
2019-01-14T05:25:26.325Z,85.57
2019-01-14T05:27:55.962Z,85.37
2019-01-14T05:30:25.638Z,85.09
2019-01-14T05:32:55.755Z,84.38
2019-01-14T05:35:25.550Z,83.55
2019-01-14T05:37:55.228Z,82.87
2019-01-14T05:40:26.012Z,81.11
2019-01-14T05:42:55.775Z,80.58
2019-01-14T05:45:25.469Z,79.99
2019-01-14T05:47:55.250Z,79.22
2019-01-14T05:50:24.971Z,78.30
2019-01-14T05:52:54.790Z,77.33
2019-01-14T05:55:24.830Z,78.12
2019-01-14T05:57:54.403Z,77.63
2019-01-14T06:00:28.542Z,77.04
2019-01-14T06:02:58.463Z,76.52
2019-01-14T06:05:28.119Z,76.71
2019-01-14T06:07:57.742Z,76.31
2019-01-14T06:10:27.424Z,75.14
2019-01-14T06:12:57.125Z,74.04
2019-01-14T06:15:26.903Z,73.73
2019-01-14T06:17:56.687Z,73.12
2019-01-14T06:20:28.025Z,72.55
2019-01-14T06:22:57.785Z,72.50
2019-01-14T06:25:27.516Z,72.39
2019-01-14T06:27:57.287Z,72.74
2019-01-14T06:30:29.225Z,73.27
2019-01-14T06:32:59.009Z,73.63
2019-01-14T06:35:29.004Z,74.08
2019-01-14T06:37:58.759Z,74.83
2019-01-14T06:40:28.511Z,75.23
2019-01-14T06:42:58.194Z,74.48
2019-01-14T06:45:27.924Z,74.44
2019-01-14T06:47:57.877Z,74.47
2019-01-14T06:50:27.614Z,74.73
2019-01-14T06:52:57.312Z,74.88
2019-01-14T06:55:27.044Z,74.64
2019-01-14T06:57:56.887Z,74.40
2019-01-14T07:00:27.035Z,74.28
2019-01-14T07:02:56.920Z,74.39
2019-01-14T07:05:26.685Z,74.55
2019-01-14T07:07:59.781Z,74.55
2019-01-14T07:10:29.089Z,74.57
2019-01-14T07:12:58.829Z,74.34
2019-01-14T07:15:28.637Z,73.90
2019-01-14T07:17:58.421Z,74.15
2019-01-14T07:20:28.823Z,74.55
2019-01-14T07:22:58.513Z,74.77
2019-01-14T07:25:28.334Z,75.00
2019-01-14T07:27:58.243Z,75.29
2019-01-14T07:30:28.908Z,74.62
2019-01-14T07:32:58.630Z,73.63
2019-01-14T07:35:28.384Z,73.48
2019-01-14T07:37:58.050Z,73.44
2019-01-14T07:40:27.809Z,73.00
2019-01-14T07:42:57.593Z,72.82
2019-01-14T07:45:29.061Z,72.23
2019-01-14T07:47:58.641Z,72.59
2019-01-14T07:50:28.400Z,72.67
2019-01-14T07:52:58.188Z,72.58
2019-01-14T07:55:27.967Z,71.44
2019-01-14T07:57:57.745Z,71.31
2019-01-14T08:00:27.523Z,71.12
2019-01-14T08:02:57.210Z,70.51
2019-01-14T08:05:27.013Z,70.87
2019-01-14T08:07:56.943Z,71.35
2019-01-14T08:10:26.689Z,67.79
2019-01-14T08:12:56.484Z,66.57
2019-01-14T08:15:26.266Z,66.01
2019-01-14T08:17:56.033Z,64.90
2019-01-14T08:20:26.074Z,62.35
2019-01-14T08:22:55.844Z,61.13
2019-01-14T08:25:25.664Z,59.57
2019-01-14T08:27:55.637Z,58.78
2019-01-14T08:30:25.419Z,57.76
2019-01-14T08:32:55.160Z,57.47
2019-01-14T08:35:24.883Z,56.93
2019-01-14T08:37:54.591Z,55.63
2019-01-14T08:40:24.332Z,53.86
2019-01-14T08:42:54.148Z,52.66
2019-01-14T08:45:23.852Z,51.70
2019-01-14T08:47:53.595Z,53.30
2019-01-14T08:50:23.424Z,52.97
2019-01-14T08:52:53.228Z,52.15
2019-01-14T08:55:23.008Z,50.35
2019-01-14T08:57:54.693Z,50.63
2019-01-14T09:00:24.853Z,51.23
2019-01-14T09:02:55.486Z,52.43
2019-01-14T09:05:25.216Z,52.03
2019-01-14T09:07:55.216Z,51.10
2019-01-14T09:10:25.225Z,51.97
2019-01-14T09:12:54.891Z,51.43
2019-01-14T09:15:26.441Z,50.52
2019-01-14T09:18:02.535Z,48.36
2019-01-14T09:20:27.710Z,47.63
2019-01-14T09:22:58.237Z,47.97
2019-01-14T09:25:27.968Z,48.98
2019-01-14T09:27:58.299Z,47.94
2019-01-14T09:30:28.268Z,47.40
2019-01-14T09:32:57.949Z,46.20
2019-01-14T09:35:28.669Z,46.05
2019-01-14T09:37:59.598Z,46.41
2019-01-14T09:40:29.356Z,43.78
2019-01-14T09:42:59.126Z,43.19
2019-01-14T09:45:29.256Z,40.70
2019-01-14T09:47:58.738Z,39.33
2019-01-14T09:50:28.616Z,38.64
2019-01-14T09:52:58.432Z,38.06
2019-01-14T09:55:28.333Z,37.56
2019-01-14T09:57:58.211Z,37.40
2019-01-14T10:00:30.297Z,37.69
2019-01-14T10:03:02.321Z,36.24
2019-01-14T10:05:32.377Z,33.58
2019-01-14T10:08:02.433Z,33.64
2019-01-14T10:10:32.323Z,35.47
2019-01-14T10:13:04.048Z,33.05
2019-01-14T10:15:33.840Z,32.20
2019-01-14T10:18:04.025Z,32.15
2019-01-14T10:20:33.741Z,32.46
2019-01-14T10:23:03.444Z,31.48
2019-01-14T10:25:34.374Z,32.09
2019-01-14T10:28:04.100Z,32.44
2019-01-14T10:30:33.808Z,29.92
2019-01-14T10:33:03.564Z,31.00
2019-01-14T10:35:34.373Z,30.71
2019-01-14T10:38:04.211Z,29.96
2019-01-14T10:40:33.961Z,31.71
2019-01-14T10:43:03.772Z,32.21
2019-01-14T10:45:33.369Z,30.79
2019-01-14T10:48:03.144Z,30.57
2019-01-14T10:50:32.827Z,31.01
2019-01-14T10:53:02.656Z,30.46
2019-01-14T10:55:32.337Z,31.97
2019-01-14T10:58:02.450Z,31.46
2019-01-14T11:00:32.622Z,32.06
2019-01-14T11:03:02.777Z,32.07
2019-01-14T11:05:32.479Z,32.63
2019-01-14T11:08:02.405Z,32.24
2019-01-14T11:10:32.114Z,32.48
2019-01-14T11:13:02.829Z,33.13
2019-01-14T11:15:32.508Z,31.42
2019-01-14T11:18:02.224Z,31.75
2019-01-14T11:20:32.010Z,32.17
2019-01-14T11:23:02.709Z,32.59
2019-01-14T11:25:32.492Z,31.30
2019-01-14T11:28:02.265Z,31.23
2019-01-14T11:30:32.075Z,30.86
2019-01-14T11:33:01.817Z,30.84
2019-01-14T11:35:31.748Z,30.34
2019-01-14T11:38:01.459Z,30.89
2019-01-14T11:40:34.128Z,30.99
2019-01-14T11:43:04.238Z,33.38
2019-01-14T11:45:34.051Z,32.39
2019-01-14T11:48:05.100Z,32.16
2019-01-14T11:50:34.970Z,33.07
2019-01-14T11:53:05.528Z,33.54
2019-01-14T11:55:35.318Z,32.76
2019-01-14T11:58:05.365Z,33.21
2019-01-14T12:00:36.765Z,33.29
2019-01-14T12:03:08.519Z,33.26
2019-01-14T12:05:38.506Z,33.58
2019-01-14T12:08:08.269Z,34.13
2019-01-14T12:10:38.287Z,33.25
2019-01-14T12:13:08.050Z,33.71
2019-01-14T12:15:37.848Z,33.26
2019-01-14T12:18:07.661Z,34.23
2019-01-14T12:20:37.466Z,34.31
2019-01-14T12:23:07.489Z,34.12
2019-01-14T12:25:37.556Z,33.95
2019-01-14T12:28:07.306Z,33.65
2019-01-14T12:30:38.429Z,35.13
2019-01-14T12:33:08.211Z,34.90
2019-01-14T12:35:37.976Z,35.36
2019-01-14T12:38:07.978Z,34.73
2019-01-14T12:40:38.029Z,35.81
2019-01-14T12:43:07.736Z,36.78
2019-01-14T12:45:37.540Z,37.24
2019-01-14T12:48:08.446Z,37.72
2019-01-14T12:50:38.190Z,38.45
2019-01-14T12:53:08.753Z,39.11
2019-01-14T12:55:38.479Z,39.31
2019-01-14T12:58:08.268Z,39.87
2019-01-14T13:00:38.051Z,40.45
2019-01-14T13:03:08.097Z,41.35
2019-01-14T13:05:38.145Z,41.07
2019-01-14T13:08:07.875Z,41.39
2019-01-14T13:10:37.637Z,42.19
2019-01-14T13:13:07.406Z,42.41
2019-01-14T13:15:37.267Z,41.28
2019-01-14T13:18:06.951Z,42.37
2019-01-14T13:20:36.647Z,41.86
2019-01-14T13:23:06.468Z,42.20
2019-01-14T13:25:36.194Z,42.31
2019-01-14T13:28:06.230Z,42.54
2019-01-14T13:30:35.965Z,42.54
2019-01-14T13:33:06.228Z,42.30
2019-01-14T13:35:35.969Z,42.94
2019-01-14T13:38:05.993Z,42.95
2019-01-14T13:40:36.217Z,42.40
2019-01-14T13:43:06.048Z,43.55
2019-01-14T13:45:35.725Z,41.98
2019-01-14T13:48:05.588Z,41.87
2019-01-14T13:50:35.417Z,42.33
2019-01-14T13:53:05.112Z,42.00
2019-01-14T13:55:34.810Z,41.24
2019-01-14T13:58:04.574Z,40.79
2019-01-14T14:00:34.394Z,41.38
2019-01-14T14:03:04.072Z,40.95
2019-01-14T14:05:33.883Z,41.35
2019-01-14T14:08:03.545Z,40.39
2019-01-14T14:10:33.313Z,39.86
2019-01-14T14:13:03.993Z,39.92
2019-01-14T14:15:34.267Z,39.60
2019-01-14T14:18:04.494Z,39.60
2019-01-14T14:20:34.294Z,38.84
2019-01-14T14:23:04.084Z,39.19
2019-01-14T14:25:33.781Z,39.42
2019-01-14T14:28:03.589Z,39.61
2019-01-14T14:30:35.842Z,39.35
2019-01-14T14:33:05.907Z,38.92
2019-01-14T14:35:35.871Z,38.68
2019-01-14T14:38:05.863Z,39.49
2019-01-14T14:40:35.605Z,38.90
2019-01-14T14:43:05.648Z,39.64
2019-01-14T14:45:35.769Z,40.52
2019-01-14T14:48:05.536Z,39.68
2019-01-14T14:50:35.348Z,40.30
2019-01-14T14:53:05.845Z,39.98
2019-01-14T14:55:37.216Z,39.72
2019-01-14T14:58:07.039Z,39.48
2019-01-14T15:00:36.736Z,38.50
2019-01-14T15:03:06.547Z,39.01
2019-01-14T15:05:36.369Z,39.33
2019-01-14T15:08:06.507Z,39.35
2019-01-14T15:10:36.239Z,39.46
2019-01-14T15:13:06.124Z,39.83
2019-01-14T15:15:35.943Z,40.08
2019-01-14T15:18:05.910Z,40.35
2019-01-14T15:20:35.771Z,38.76
2019-01-14T15:23:05.567Z,38.95
2019-01-14T15:25:35.238Z,40.07
2019-01-14T15:28:04.940Z,40.19
2019-01-14T15:30:34.742Z,40.64
2019-01-14T15:33:04.444Z,41.57
2019-01-14T15:35:34.230Z,42.61
2019-01-14T15:38:04.155Z,42.63
2019-01-14T15:40:33.844Z,42.42
2019-01-14T15:43:04.068Z,42.67
2019-01-14T15:45:33.849Z,42.99
2019-01-14T15:48:03.649Z,43.38
2019-01-14T15:50:33.428Z,43.64
2019-01-14T15:53:03.181Z,44.24
2019-01-14T15:55:32.992Z,44.81
2019-01-14T15:58:02.718Z,45.14
2019-01-14T16:00:32.448Z,47.86
2019-01-14T16:03:02.301Z,44.22
2019-01-14T16:05:32.033Z,44.51
2019-01-14T16:08:01.791Z,44.85
2019-01-14T16:10:32.177Z,43.80
2019-01-14T16:13:01.905Z,44.17
2019-01-14T16:15:31.631Z,44.57
2019-01-14T16:18:01.438Z,44.86
2019-01-14T16:20:31.544Z,45.57
2019-01-14T16:23:02.337Z,46.08
2019-01-14T16:25:32.718Z,45.57
2019-01-14T16:28:02.468Z,45.67
2019-01-14T16:30:32.315Z,46.15
2019-01-14T16:33:02.094Z,45.24
2019-01-14T16:35:31.951Z,45.83
2019-01-14T16:38:02.083Z,45.95
2019-01-14T16:40:31.855Z,45.94
2019-01-14T16:43:01.683Z,46.91
2019-01-14T16:45:31.456Z,48.16
2019-01-14T16:48:01.237Z,48.26
2019-01-14T16:50:30.998Z,49.29
2019-01-14T16:53:00.891Z,50.13
2019-01-14T16:55:32.241Z,51.00
2019-01-14T16:58:02.141Z,51.16
2019-01-14T17:00:31.844Z,51.90
2019-01-14T17:03:01.602Z,52.40
2019-01-14T17:05:31.477Z,53.10
2019-01-14T17:08:01.241Z,53.10
2019-01-14T17:10:31.017Z,53.30
2019-01-14T17:13:01.174Z,53.50
2019-01-14T17:15:31.485Z,53.50
2019-01-14T17:18:01.252Z,53.42
2019-01-14T17:20:31.062Z,53.22
2019-01-14T17:23:00.887Z,53.64
2019-01-14T17:25:30.624Z,53.86
2019-01-14T17:28:00.466Z,53.97
2019-01-14T17:30:30.265Z,54.08
2019-01-14T17:33:00.025Z,54.58
2019-01-14T17:35:29.832Z,55.27
2019-01-14T17:37:59.630Z,55.68
2019-01-14T17:40:32.770Z,56.16
2019-01-14T17:43:00.943Z,56.29
2019-01-14T17:45:30.731Z,56.62
2019-01-14T17:48:00.756Z,56.81
2019-01-14T17:50:30.709Z,56.73
2019-01-14T17:53:00.527Z,57.00
2019-01-14T17:55:30.477Z,56.97
2019-01-14T17:58:00.460Z,57.08
2019-01-14T18:00:30.272Z,57.27
2019-01-14T18:03:01.252Z,57.43
2019-01-14T18:05:31.019Z,57.89
2019-01-14T18:08:00.604Z,57.97
2019-01-14T18:10:30.593Z,58.07
2019-01-14T18:13:01.524Z,58.06
2019-01-14T18:15:31.296Z,58.13
2019-01-14T18:18:01.163Z,58.09
2019-01-14T18:20:30.946Z,58.02
2019-01-14T18:23:01.121Z,58.02
2019-01-14T18:25:30.930Z,57.90
2019-01-14T18:28:00.705Z,57.78
2019-01-14T18:30:30.508Z,59.75
2019-01-14T18:33:00.293Z,63.14
2019-01-14T18:35:30.058Z,56.11
2019-01-14T18:37:59.837Z,55.90
2019-01-14T18:40:33.796Z,55.22
2019-01-14T18:43:01.096Z,54.51
2019-01-14T18:45:30.894Z,54.15
2019-01-14T18:48:00.652Z,54.90
2019-01-14T18:50:30.449Z,55.66
2019-01-14T18:53:00.775Z,56.07
2019-01-14T18:55:30.488Z,56.39
2019-01-14T18:58:00.292Z,56.17
2019-01-14T19:00:30.162Z,55.96
2019-01-14T19:02:59.941Z,56.20
2019-01-14T19:05:29.749Z,56.51
2019-01-14T19:08:02.268Z,56.91
2019-01-14T19:10:32.343Z,57.30
2019-01-14T19:13:02.182Z,52.88
2019-01-14T19:15:31.890Z,51.13
2019-01-14T19:18:02.011Z,50.26
2019-01-14T19:20:31.820Z,50.30
2019-01-14T19:23:01.633Z,47.83
2019-01-14T19:25:33.505Z,47.45
2019-01-14T19:28:03.289Z,47.50
2019-01-14T19:30:33.149Z,46.24
2019-01-14T19:33:05.300Z,47.25
2019-01-14T19:35:35.167Z,46.16
2019-01-14T19:38:04.931Z,46.83
2019-01-14T19:40:34.680Z,44.96
2019-01-14T19:43:04.516Z,44.81
2019-01-14T19:45:34.265Z,44.35
2019-01-14T19:48:04.087Z,44.96
2019-01-14T19:50:34.159Z,44.92
2019-01-14T19:53:04.356Z,45.39
2019-01-14T19:55:34.198Z,48.16
2019-01-14T19:58:03.947Z,52.06
2019-01-14T20:00:34.077Z,57.14
2019-01-14T20:03:03.882Z,59.40
2019-01-14T20:05:33.621Z,61.57
2019-01-14T20:08:04.208Z,64.08
2019-01-14T20:10:33.998Z,67.07
2019-01-14T20:13:03.834Z,67.68
2019-01-14T20:15:33.664Z,67.68
2019-01-14T20:18:05.192Z,69.07
2019-01-14T20:20:35.347Z,69.07
2019-01-14T20:23:05.124Z,69.07
2019-01-14T20:25:35.304Z,69.16
2019-01-14T20:28:05.066Z,69.53
2019-01-14T20:30:34.921Z,67.91
2019-01-14T20:33:06.056Z,66.91
2019-01-14T20:35:36.119Z,66.91
2019-01-14T20:38:06.028Z,66.20
2019-01-14T20:40:35.853Z,65.54
2019-01-14T20:43:05.695Z,64.89
2019-01-14T20:45:35.454Z,64.28
2019-01-14T20:48:05.352Z,64.01
2019-01-14T20:50:35.148Z,63.92
2019-01-14T20:53:05.418Z,63.90
2019-01-14T20:55:35.261Z,63.81
2019-01-14T20:58:05.142Z,64.23
2019-01-14T21:00:36.718Z,64.45
2019-01-14T21:03:10.001Z,64.88
2019-01-14T21:05:40.049Z,65.15
2019-01-14T21:08:09.819Z,64.82
2019-01-14T21:10:39.572Z,64.62
2019-01-14T21:13:09.443Z,63.79
2019-01-14T21:15:40.164Z,62.36
2019-01-14T21:18:10.318Z,61.92
2019-01-14T21:20:41.522Z,62.29
2019-01-14T21:23:11.289Z,62.30
2019-01-14T21:25:41.112Z,62.38
2019-01-14T21:28:11.864Z,62.90
2019-01-14T21:30:44.371Z,63.86
2019-01-14T21:33:14.265Z,65.58
2019-01-14T21:35:44.038Z,66.94
2019-01-14T21:38:13.777Z,68.13
2019-01-14T21:40:43.643Z,69.12
2019-01-14T21:43:13.374Z,69.61
2019-01-14T21:45:43.202Z,70.44
2019-01-14T21:48:17.061Z,70.71
2019-01-14T21:50:45.784Z,71.92
2019-01-14T21:53:15.612Z,72.25
2019-01-14T21:55:45.497Z,72.72
2019-01-14T21:58:15.484Z,73.09
2019-01-14T22:00:45.311Z,73.32
2019-01-14T22:03:15.712Z,73.32
2019-01-14T22:05:45.531Z,73.53
2019-01-14T22:08:15.363Z,74.01
2019-01-14T22:10:45.119Z,73.90
2019-01-14T22:13:14.876Z,73.73
2019-01-14T22:15:44.691Z,73.63
2019-01-14T22:18:14.459Z,73.33
2019-01-14T22:20:44.311Z,72.16
2019-01-14T22:23:14.078Z,69.71
2019-01-14T22:25:43.949Z,67.78
2019-01-14T22:28:13.769Z,67.78
2019-01-14T22:30:43.541Z,67.71
2019-01-14T22:33:13.279Z,68.23
2019-01-14T22:35:43.085Z,68.83
2019-01-14T22:38:12.908Z,69.57
2019-01-14T22:40:42.674Z,70.57
2019-01-14T22:43:12.476Z,70.57
2019-01-14T22:45:42.216Z,70.71
2019-01-14T22:48:11.961Z,70.83
2019-01-14T22:50:42.118Z,71.79
2019-01-14T22:53:12.030Z,72.54
2019-01-14T22:55:42.053Z,72.98
2019-01-14T22:58:11.819Z,73.70
2019-01-14T23:00:55.914Z,74.27
2019-01-14T23:03:26.174Z,74.66
2019-01-14T23:05:55.977Z,74.76
2019-01-14T23:08:25.799Z,74.91
2019-01-14T23:10:55.571Z,74.85
2019-01-14T23:13:25.280Z,74.73
2019-01-14T23:15:55.123Z,75.03
2019-01-14T23:18:24.884Z,75.42
2019-01-14T23:20:54.661Z,76.86
2019-01-14T23:23:24.946Z,76.86
2019-01-14T23:25:55.107Z,77.09
2019-01-14T23:28:24.874Z,77.27
2019-01-14T23:30:54.707Z,77.27
2019-01-14T23:33:24.483Z,77.08
2019-01-14T23:35:54.255Z,76.84
2019-01-14T23:38:24.319Z,76.56
2019-01-14T23:40:54.094Z,76.31
2019-01-14T23:43:23.867Z,75.96
2019-01-14T23:45:53.952Z,76.13
2019-01-14T23:48:24.148Z,76.24
2019-01-14T23:50:53.949Z,76.24
2019-01-14T23:53:23.759Z,76.71
2019-01-14T23:55:53.535Z,77.03
2019-01-14T23:58:23.387Z,77.11
